sensor_id;sensor_type;location;lat;lon;timestamp;P1;durP1;ratioP1;P2;durP2;ratioP2
66707;SDS011;53622;0.000;0.000;2022-12-18T00:02:11;3.97;;;3.67;;
66707;SDS011;53622;0.000;0.000;2022-12-18T00:04:41;4.28;;;3.88;;
66707;SDS011;53622;0.000;0.000;2022-12-18T00:07:10;4.20;;;3.80;;
66707;SDS011;53622;0.000;0.000;2022-12-18T00:09:39;4.43;;;4.13;;
66707;SDS011;53622;0.000;0.000;2022-12-18T00:12:08;4.00;;;3.70;;
66707;SDS011;53622;0.000;0.000;2022-12-18T00:14:46;3.90;;;3.60;;
66707;SDS011;53622;0.000;0.000;2022-12-18T00:17:15;4.07;;;3.75;;
66707;SDS011;53622;0.000;0.000;2022-12-18T00:19:45;4.47;;;4.07;;
66707;SDS011;53622;0.000;0.000;2022-12-18T00:22:14;4.47;;;4.07;;
66707;SDS011;53622;0.000;0.000;2022-12-18T00:24:43;4.38;;;3.97;;
66707;SDS011;53622;0.000;0.000;2022-12-18T00:27:12;4.22;;;3.92;;
66707;SDS011;53622;0.000;0.000;2022-12-18T00:29:41;4.38;;;3.97;;
66707;SDS011;53622;0.000;0.000;2022-12-18T00:32:12;4.00;;;3.70;;
66707;SDS011;53622;0.000;0.000;2022-12-18T00:34:41;4.07;;;3.78;;
66707;SDS011;53622;0.000;0.000;2022-12-18T00:37:11;4.07;;;3.78;;
66707;SDS011;53622;0.000;0.000;2022-12-18T00:39:49;5.10;;;3.75;;
66707;SDS011;53622;0.000;0.000;2022-12-18T00:42:19;3.95;;;3.60;;
66707;SDS011;53622;0.000;0.000;2022-12-18T00:45:06;3.85;;;3.50;;
66707;SDS011;53622;0.000;0.000;2022-12-18T00:47:40;4.25;;;3.85;;
66707;SDS011;53622;0.000;0.000;2022-12-18T00:50:10;4.43;;;4.03;;
66707;SDS011;53622;0.000;0.000;2022-12-18T00:52:40;4.88;;;3.70;;
66707;SDS011;53622;0.000;0.000;2022-12-18T00:55:10;4.13;;;3.83;;
66707;SDS011;53622;0.000;0.000;2022-12-18T00:57:40;3.85;;;3.55;;
66707;SDS011;53622;0.000;0.000;2022-12-18T01:00:10;4.05;;;3.70;;
66707;SDS011;53622;0.000;0.000;2022-12-18T01:02:43;4.13;;;3.80;;
66707;SDS011;53622;0.000;0.000;2022-12-18T01:05:13;3.80;;;3.50;;
66707;SDS011;53622;0.000;0.000;2022-12-18T01:07:42;4.38;;;3.97;;
66707;SDS011;53622;0.000;0.000;2022-12-18T01:10:12;4.20;;;3.80;;
66707;SDS011;53622;0.000;0.000;2022-12-18T01:12:41;3.85;;;3.55;;
66707;SDS011;53622;0.000;0.000;2022-12-18T01:15:11;4.53;;;4.07;;
66707;SDS011;53622;0.000;0.000;2022-12-18T01:17:43;3.90;;;3.60;;
66707;SDS011;53622;0.000;0.000;2022-12-18T01:20:13;4.22;;;3.92;;
66707;SDS011;53622;0.000;0.000;2022-12-18T01:22:43;4.10;;;3.70;;
66707;SDS011;53622;0.000;0.000;2022-12-18T01:25:12;4.10;;;3.70;;
66707;SDS011;53622;0.000;0.000;2022-12-18T01:27:42;4.40;;;4.00;;
66707;SDS011;53622;0.000;0.000;2022-12-18T01:30:12;4.47;;;4.07;;
66707;SDS011;53622;0.000;0.000;2022-12-18T01:32:41;4.82;;;3.95;;
66707;SDS011;53622;0.000;0.000;2022-12-18T01:35:12;3.80;;;3.50;;
66707;SDS011;53622;0.000;0.000;2022-12-18T01:37:41;3.90;;;3.60;;
66707;SDS011;53622;0.000;0.000;2022-12-18T01:40:11;3.83;;;3.53;;
66707;SDS011;53622;0.000;0.000;2022-12-18T01:42:40;4.45;;;4.03;;
66707;SDS011;53622;0.000;0.000;2022-12-18T01:45:24;5.10;;;4.60;;
66707;SDS011;53622;0.000;0.000;2022-12-18T01:47:57;4.30;;;3.95;;
66707;SDS011;53622;0.000;0.000;2022-12-18T01:50:31;4.25;;;3.85;;
66707;SDS011;53622;0.000;0.000;2022-12-18T01:53:03;5.30;;;4.00;;
66707;SDS011;53622;0.000;0.000;2022-12-18T01:55:36;4.47;;;4.07;;
66707;SDS011;53622;0.000;0.000;2022-12-18T01:58:09;4.53;;;4.13;;
66707;SDS011;53622;0.000;0.000;2022-12-18T02:00:39;4.75;;;4.32;;
66707;SDS011;53622;0.000;0.000;2022-12-18T02:03:10;4.47;;;4.07;;
66707;SDS011;53622;0.000;0.000;2022-12-18T02:05:41;4.40;;;4.00;;
66707;SDS011;53622;0.000;0.000;2022-12-18T02:08:16;4.18;;;3.78;;
66707;SDS011;53622;0.000;0.000;2022-12-18T02:10:52;5.25;;;4.72;;
66707;SDS011;53622;0.000;0.000;2022-12-18T02:13:32;4.85;;;4.38;;
66707;SDS011;53622;0.000;0.000;2022-12-18T02:16:12;4.60;;;4.03;;
66707;SDS011;53622;0.000;0.000;2022-12-18T02:18:53;4.70;;;4.30;;
66707;SDS011;53622;0.000;0.000;2022-12-18T02:21:30;5.00;;;4.50;;
66707;SDS011;53622;0.000;0.000;2022-12-18T02:24:11;5.00;;;4.50;;
66707;SDS011;53622;0.000;0.000;2022-12-18T02:26:55;5.13;;;4.63;;
66707;SDS011;53622;0.000;0.000;2022-12-18T02:29:29;4.65;;;4.25;;
66707;SDS011;53622;0.000;0.000;2022-12-18T02:32:03;5.10;;;4.47;;
66707;SDS011;53622;0.000;0.000;2022-12-18T02:34:37;5.20;;;4.70;;
66707;SDS011;53622;0.000;0.000;2022-12-18T02:37:13;4.90;;;4.40;;
66707;SDS011;53622;0.000;0.000;2022-12-18T02:39:48;5.05;;;4.55;;
66707;SDS011;53622;0.000;0.000;2022-12-18T02:42:19;4.53;;;4.07;;
66707;SDS011;53622;0.000;0.000;2022-12-18T02:44:51;4.72;;;4.30;;
66707;SDS011;53622;0.000;0.000;2022-12-18T02:47:24;4.93;;;4.32;;
66707;SDS011;53622;0.000;0.000;2022-12-18T02:49:58;5.80;;;4.78;;
66707;SDS011;53622;0.000;0.000;2022-12-18T02:52:35;4.95;;;4.50;;
66707;SDS011;53622;0.000;0.000;2022-12-18T02:55:14;5.50;;;4.68;;
66707;SDS011;53622;0.000;0.000;2022-12-18T02:57:55;4.88;;;4.22;;
66707;SDS011;53622;0.000;0.000;2022-12-18T03:00:33;5.40;;;4.90;;
66707;SDS011;53622;0.000;0.000;2022-12-18T03:03:09;4.47;;;4.07;;
66707;SDS011;53622;0.000;0.000;2022-12-18T03:05:44;4.60;;;4.20;;
66707;SDS011;53622;0.000;0.000;2022-12-18T03:08:19;4.35;;;3.95;;
66707;SDS011;53622;0.000;0.000;2022-12-18T03:10:51;5.18;;;4.65;;
66707;SDS011;53622;0.000;0.000;2022-12-18T03:13:32;4.90;;;4.45;;
66707;SDS011;53622;0.000;0.000;2022-12-18T03:16:06;5.00;;;4.50;;
66707;SDS011;53622;0.000;0.000;2022-12-18T03:18:41;4.60;;;4.20;;
66707;SDS011;53622;0.000;0.000;2022-12-18T03:21:14;4.43;;;4.03;;
66707;SDS011;53622;0.000;0.000;2022-12-18T03:23:47;5.32;;;4.78;;
66707;SDS011;53622;0.000;0.000;2022-12-18T03:26:23;5.85;;;5.25;;
66707;SDS011;53622;0.000;0.000;2022-12-18T03:29:01;5.22;;;4.50;;
66707;SDS011;53622;0.000;0.000;2022-12-18T03:31:36;4.88;;;4.38;;
66707;SDS011;53622;0.000;0.000;2022-12-18T03:34:08;4.88;;;4.45;;
66707;SDS011;53622;0.000;0.000;2022-12-18T03:36:45;5.20;;;4.70;;
66707;SDS011;53622;0.000;0.000;2022-12-18T03:39:14;4.93;;;4.50;;
66707;SDS011;53622;0.000;0.000;2022-12-18T03:41:52;4.85;;;4.45;;
66707;SDS011;53622;0.000;0.000;2022-12-18T03:44:38;4.78;;;4.28;;
66707;SDS011;53622;0.000;0.000;2022-12-18T03:47:13;4.55;;;4.15;;
66707;SDS011;53622;0.000;0.000;2022-12-18T03:49:46;4.45;;;4.05;;
66707;SDS011;53622;0.000;0.000;2022-12-18T03:52:20;4.93;;;4.53;;
66707;SDS011;53622;0.000;0.000;2022-12-18T03:54:56;5.05;;;4.18;;
66707;SDS011;53622;0.000;0.000;2022-12-18T03:57:28;5.13;;;4.63;;
66707;SDS011;53622;0.000;0.000;2022-12-18T04:00:04;4.80;;;4.40;;
66707;SDS011;53622;0.000;0.000;2022-12-18T04:02:54;5.10;;;4.57;;
66707;SDS011;53622;0.000;0.000;2022-12-18T04:05:33;4.88;;;4.40;;
66707;SDS011;53622;0.000;0.000;2022-12-18T04:08:05;4.63;;;4.20;;
66707;SDS011;53622;0.000;0.000;2022-12-18T04:10:38;4.85;;;4.43;;
66707;SDS011;53622;0.000;0.000;2022-12-18T04:13:08;5.05;;;4.55;;
66707;SDS011;53622;0.000;0.000;2022-12-18T04:15:39;4.85;;;4.35;;
66707;SDS011;53622;0.000;0.000;2022-12-18T04:18:13;4.63;;;4.22;;
66707;SDS011;53622;0.000;0.000;2022-12-18T04:20:43;4.43;;;4.03;;
66707;SDS011;53622;0.000;0.000;2022-12-18T04:23:12;4.53;;;4.13;;
66707;SDS011;53622;0.000;0.000;2022-12-18T04:25:42;4.57;;;4.18;;
66707;SDS011;53622;0.000;0.000;2022-12-18T04:28:16;4.32;;;3.92;;
66707;SDS011;53622;0.000;0.000;2022-12-18T04:30:48;4.40;;;4.00;;
66707;SDS011;53622;0.000;0.000;2022-12-18T04:33:19;5.53;;;3.85;;
66707;SDS011;53622;0.000;0.000;2022-12-18T04:35:49;4.30;;;3.78;;
66707;SDS011;53622;0.000;0.000;2022-12-18T04:38:18;4.55;;;4.15;;
66707;SDS011;53622;0.000;0.000;2022-12-18T04:40:54;4.30;;;3.95;;
66707;SDS011;53622;0.000;0.000;2022-12-18T04:43:26;4.38;;;3.97;;
66707;SDS011;53622;0.000;0.000;2022-12-18T04:46:02;4.93;;;4.47;;
66707;SDS011;53622;0.000;0.000;2022-12-18T04:48:32;4.88;;;4.47;;
66707;SDS011;53622;0.000;0.000;2022-12-18T04:51:02;4.88;;;4.38;;
66707;SDS011;53622;0.000;0.000;2022-12-18T04:53:32;4.53;;;4.13;;
66707;SDS011;53622;0.000;0.000;2022-12-18T04:56:05;4.60;;;4.20;;
66707;SDS011;53622;0.000;0.000;2022-12-18T04:58:36;4.30;;;3.90;;
66707;SDS011;53622;0.000;0.000;2022-12-18T05:01:07;4.53;;;4.13;;
66707;SDS011;53622;0.000;0.000;2022-12-18T05:03:37;4.70;;;4.30;;
66707;SDS011;53622;0.000;0.000;2022-12-18T05:06:07;4.60;;;4.20;;
66707;SDS011;53622;0.000;0.000;2022-12-18T05:08:37;4.70;;;4.30;;
66707;SDS011;53622;0.000;0.000;2022-12-18T05:11:07;4.93;;;4.43;;
66707;SDS011;53622;0.000;0.000;2022-12-18T05:13:38;4.95;;;4.45;;
66707;SDS011;53622;0.000;0.000;2022-12-18T05:16:09;4.85;;;4.45;;
66707;SDS011;53622;0.000;0.000;2022-12-18T05:18:39;4.55;;;4.15;;
66707;SDS011;53622;0.000;0.000;2022-12-18T05:21:09;4.70;;;4.30;;
66707;SDS011;53622;0.000;0.000;2022-12-18T05:23:38;5.28;;;4.88;;
66707;SDS011;53622;0.000;0.000;2022-12-18T05:26:08;4.60;;;4.20;;
66707;SDS011;53622;0.000;0.000;2022-12-18T05:28:42;4.47;;;4.07;;
66707;SDS011;53622;0.000;0.000;2022-12-18T05:31:13;5.00;;;4.60;;
66707;SDS011;53622;0.000;0.000;2022-12-18T05:33:43;5.50;;;4.35;;
66707;SDS011;53622;0.000;0.000;2022-12-18T05:36:12;4.70;;;4.30;;
66707;SDS011;53622;0.000;0.000;2022-12-18T05:38:41;4.70;;;4.30;;
66707;SDS011;53622;0.000;0.000;2022-12-18T05:41:10;4.35;;;3.95;;
66707;SDS011;53622;0.000;0.000;2022-12-18T05:43:40;5.30;;;4.80;;
66707;SDS011;53622;0.000;0.000;2022-12-18T05:46:11;4.28;;;3.88;;
66707;SDS011;53622;0.000;0.000;2022-12-18T05:48:43;5.22;;;4.82;;
66707;SDS011;53622;0.000;0.000;2022-12-18T05:51:14;5.38;;;4.88;;
66707;SDS011;53622;0.000;0.000;2022-12-18T05:53:45;4.70;;;4.28;;
66707;SDS011;53622;0.000;0.000;2022-12-18T05:56:16;5.10;;;4.60;;
66707;SDS011;53622;0.000;0.000;2022-12-18T05:58:47;4.75;;;4.35;;
66707;SDS011;53622;0.000;0.000;2022-12-18T06:01:23;5.35;;;4.85;;
66707;SDS011;53622;0.000;0.000;2022-12-18T06:03:53;4.60;;;4.20;;
66707;SDS011;53622;0.000;0.000;2022-12-18T06:06:24;5.10;;;4.70;;
66707;SDS011;53622;0.000;0.000;2022-12-18T06:08:54;4.82;;;4.43;;
66707;SDS011;53622;0.000;0.000;2022-12-18T06:11:25;5.30;;;4.80;;
66707;SDS011;53622;0.000;0.000;2022-12-18T06:13:55;4.82;;;4.38;;
66707;SDS011;53622;0.000;0.000;2022-12-18T06:16:28;5.32;;;4.82;;
66707;SDS011;53622;0.000;0.000;2022-12-18T06:18:58;4.78;;;4.38;;
66707;SDS011;53622;0.000;0.000;2022-12-18T06:21:28;5.47;;;4.97;;
66707;SDS011;53622;0.000;0.000;2022-12-18T06:23:59;4.93;;;4.53;;
66707;SDS011;53622;0.000;0.000;2022-12-18T06:26:29;5.10;;;4.60;;
66707;SDS011;53622;0.000;0.000;2022-12-18T06:28:58;4.83;;;4.43;;
66707;SDS011;53622;0.000;0.000;2022-12-18T06:31:29;5.15;;;4.65;;
66707;SDS011;53622;0.000;0.000;2022-12-18T06:33:59;4.90;;;4.47;;
66707;SDS011;53622;0.000;0.000;2022-12-18T06:36:30;5.00;;;4.53;;
66707;SDS011;53622;0.000;0.000;2022-12-18T06:39:00;4.82;;;4.40;;
66707;SDS011;53622;0.000;0.000;2022-12-18T06:41:29;4.80;;;4.35;;
66707;SDS011;53622;0.000;0.000;2022-12-18T06:43:58;4.45;;;4.07;;
66707;SDS011;53622;0.000;0.000;2022-12-18T06:46:29;4.20;;;3.90;;
66707;SDS011;53622;0.000;0.000;2022-12-18T06:48:59;4.32;;;3.92;;
66707;SDS011;53622;0.000;0.000;2022-12-18T06:51:28;4.40;;;4.00;;
66707;SDS011;53622;0.000;0.000;2022-12-18T06:53:58;4.47;;;4.07;;
66707;SDS011;53622;0.000;0.000;2022-12-18T06:56:27;4.70;;;4.30;;
66707;SDS011;53622;0.000;0.000;2022-12-18T06:58:56;5.47;;;3.88;;
66707;SDS011;53622;0.000;0.000;2022-12-18T07:01:26;5.60;;;3.70;;
66707;SDS011;53622;0.000;0.000;2022-12-18T07:03:57;5.28;;;3.90;;
66707;SDS011;53622;0.000;0.000;2022-12-18T07:06:26;4.03;;;3.33;;
66707;SDS011;53622;0.000;0.000;2022-12-18T07:08:55;5.33;;;3.67;;
66707;SDS011;53622;0.000;0.000;2022-12-18T07:11:25;4.47;;;3.33;;
66707;SDS011;53622;0.000;0.000;2022-12-18T07:13:54;3.95;;;3.25;;
66707;SDS011;53622;0.000;0.000;2022-12-18T07:16:23;3.35;;;3.05;;
66707;SDS011;53622;0.000;0.000;2022-12-18T07:18:53;4.78;;;2.92;;
66707;SDS011;53622;0.000;0.000;2022-12-18T07:21:25;3.53;;;3.22;;
66707;SDS011;53622;0.000;0.000;2022-12-18T07:23:54;3.30;;;3.00;;
66707;SDS011;53622;0.000;0.000;2022-12-18T07:26:23;4.53;;;3.30;;
66707;SDS011;53622;0.000;0.000;2022-12-18T07:28:54;3.58;;;3.28;;
66707;SDS011;53622;0.000;0.000;2022-12-18T07:31:25;4.55;;;3.47;;
66707;SDS011;53622;0.000;0.000;2022-12-18T07:33:55;3.30;;;3.00;;
66707;SDS011;53622;0.000;0.000;2022-12-18T07:36:26;3.03;;;2.83;;
66707;SDS011;53622;0.000;0.000;2022-12-18T07:38:55;3.03;;;2.73;;
66707;SDS011;53622;0.000;0.000;2022-12-18T07:41:25;3.40;;;3.10;;
66707;SDS011;53622;0.000;0.000;2022-12-18T07:43:54;3.05;;;2.85;;
66707;SDS011;53622;0.000;0.000;2022-12-18T07:46:23;2.97;;;2.63;;
66707;SDS011;53622;0.000;0.000;2022-12-18T07:48:52;3.20;;;2.90;;
66707;SDS011;53622;0.000;0.000;2022-12-18T07:51:22;3.47;;;3.17;;
66707;SDS011;53622;0.000;0.000;2022-12-18T07:53:52;3.40;;;3.10;;
66707;SDS011;53622;0.000;0.000;2022-12-18T07:56:21;3.40;;;3.10;;
66707;SDS011;53622;0.000;0.000;2022-12-18T07:58:56;3.03;;;2.72;;
66707;SDS011;53622;0.000;0.000;2022-12-18T08:01:26;3.40;;;3.05;;
66707;SDS011;53622;0.000;0.000;2022-12-18T08:03:56;6.85;;;3.90;;
66707;SDS011;53622;0.000;0.000;2022-12-18T08:06:26;4.55;;;3.90;;
66707;SDS011;53622;0.000;0.000;2022-12-18T08:08:56;5.50;;;3.05;;
66707;SDS011;53622;0.000;0.000;2022-12-18T08:11:27;5.82;;;3.30;;
66707;SDS011;53622;0.000;0.000;2022-12-18T08:13:57;4.63;;;3.33;;
66707;SDS011;53622;0.000;0.000;2022-12-18T08:16:26;4.78;;;3.63;;
66707;SDS011;53622;0.000;0.000;2022-12-18T08:18:56;4.72;;;3.80;;
66707;SDS011;53622;0.000;0.000;2022-12-18T08:21:26;15.15;;;7.25;;
66707;SDS011;53622;0.000;0.000;2022-12-18T08:23:59;7.00;;;6.10;;
66707;SDS011;53622;0.000;0.000;2022-12-18T08:26:29;7.20;;;5.18;;
66707;SDS011;53622;0.000;0.000;2022-12-18T08:28:59;6.57;;;4.53;;
66707;SDS011;53622;0.000;0.000;2022-12-18T08:31:29;5.17;;;4.40;;
66707;SDS011;53622;0.000;0.000;2022-12-18T08:34:00;5.53;;;4.32;;
66707;SDS011;53622;0.000;0.000;2022-12-18T08:36:29;5.50;;;4.28;;
66707;SDS011;53622;0.000;0.000;2022-12-18T08:39:00;4.40;;;4.00;;
66707;SDS011;53622;0.000;0.000;2022-12-18T08:41:29;4.32;;;3.95;;
66707;SDS011;53622;0.000;0.000;2022-12-18T08:44:00;6.47;;;4.10;;
66707;SDS011;53622;0.000;0.000;2022-12-18T08:46:46;4.38;;;3.80;;
66707;SDS011;53622;0.000;0.000;2022-12-18T08:49:16;5.93;;;4.18;;
66707;SDS011;53622;0.000;0.000;2022-12-18T08:51:45;4.82;;;3.92;;
66707;SDS011;53622;0.000;0.000;2022-12-18T08:54:16;5.03;;;4.32;;
66707;SDS011;53622;0.000;0.000;2022-12-18T08:56:45;5.60;;;4.18;;
66707;SDS011;53622;0.000;0.000;2022-12-18T08:59:14;4.70;;;4.28;;
66707;SDS011;53622;0.000;0.000;2022-12-18T09:01:46;8.43;;;5.13;;
66707;SDS011;53622;0.000;0.000;2022-12-18T09:04:16;7.63;;;4.15;;
66707;SDS011;53622;0.000;0.000;2022-12-18T09:06:46;6.47;;;4.40;;
66707;SDS011;53622;0.000;0.000;2022-12-18T09:09:16;4.60;;;4.00;;
66707;SDS011;53622;0.000;0.000;2022-12-18T09:11:46;8.65;;;4.53;;
66707;SDS011;53622;0.000;0.000;2022-12-18T09:14:15;6.00;;;4.38;;
66707;SDS011;53622;0.000;0.000;2022-12-18T09:16:45;8.88;;;4.18;;
66707;SDS011;53622;0.000;0.000;2022-12-18T09:19:14;7.45;;;4.20;;
66707;SDS011;53622;0.000;0.000;2022-12-18T09:21:43;5.28;;;3.80;;
66707;SDS011;53622;0.000;0.000;2022-12-18T09:24:15;9.30;;;4.85;;
66707;SDS011;53622;0.000;0.000;2022-12-18T09:26:46;16.33;;;4.47;;
66707;SDS011;53622;0.000;0.000;2022-12-18T09:29:19;8.13;;;4.75;;
66707;SDS011;53622;0.000;0.000;2022-12-18T09:31:49;32.28;;;4.72;;
66707;SDS011;53622;0.000;0.000;2022-12-18T09:34:18;9.82;;;4.55;;
66707;SDS011;53622;0.000;0.000;2022-12-18T09:36:49;8.30;;;4.07;;
66707;SDS011;53622;0.000;0.000;2022-12-18T09:39:20;6.78;;;4.18;;
66707;SDS011;53622;0.000;0.000;2022-12-18T09:41:51;9.02;;;4.32;;
66707;SDS011;53622;0.000;0.000;2022-12-18T09:44:23;6.13;;;4.22;;
66707;SDS011;53622;0.000;0.000;2022-12-18T09:46:57;7.70;;;4.47;;
66707;SDS011;53622;0.000;0.000;2022-12-18T09:49:32;11.02;;;4.38;;
66707;SDS011;53622;0.000;0.000;2022-12-18T09:52:08;7.93;;;4.53;;
66707;SDS011;53622;0.000;0.000;2022-12-18T09:54:43;7.85;;;5.25;;
66707;SDS011;53622;0.000;0.000;2022-12-18T09:57:15;7.75;;;4.68;;
66707;SDS011;53622;0.000;0.000;2022-12-18T09:59:50;6.50;;;3.95;;
66707;SDS011;53622;0.000;0.000;2022-12-18T10:02:23;6.28;;;4.30;;
66707;SDS011;53622;0.000;0.000;2022-12-18T10:04:59;6.22;;;3.90;;
66707;SDS011;53622;0.000;0.000;2022-12-18T10:07:37;5.85;;;3.80;;
66707;SDS011;53622;0.000;0.000;2022-12-18T10:10:16;5.20;;;3.88;;
66707;SDS011;53622;0.000;0.000;2022-12-18T10:12:54;5.53;;;3.97;;
66707;SDS011;53622;0.000;0.000;2022-12-18T10:15:32;8.02;;;4.30;;
66707;SDS011;53622;0.000;0.000;2022-12-18T10:18:14;8.52;;;4.38;;
66707;SDS011;53622;0.000;0.000;2022-12-18T10:20:52;5.97;;;4.20;;
66707;SDS011;53622;0.000;0.000;2022-12-18T10:23:28;12.07;;;4.50;;
66707;SDS011;53622;0.000;0.000;2022-12-18T10:26:13;9.50;;;4.10;;
66707;SDS011;53622;0.000;0.000;2022-12-18T10:28:43;10.38;;;4.07;;
66707;SDS011;53622;0.000;0.000;2022-12-18T10:31:14;5.20;;;3.72;;
66707;SDS011;53622;0.000;0.000;2022-12-18T10:33:45;5.65;;;4.32;;
66707;SDS011;53622;0.000;0.000;2022-12-18T10:36:15;6.25;;;4.60;;
66707;SDS011;53622;0.000;0.000;2022-12-18T10:38:44;6.55;;;4.07;;
66707;SDS011;53622;0.000;0.000;2022-12-18T10:41:24;10.77;;;4.13;;
66707;SDS011;53622;0.000;0.000;2022-12-18T10:44:11;5.72;;;4.18;;
66707;SDS011;53622;0.000;0.000;2022-12-18T10:46:45;8.02;;;4.60;;
66707;SDS011;53622;0.000;0.000;2022-12-18T10:49:21;7.13;;;3.95;;
66707;SDS011;53622;0.000;0.000;2022-12-18T10:52:03;10.95;;;4.40;;
66707;SDS011;53622;0.000;0.000;2022-12-18T10:54:34;6.90;;;3.95;;
66707;SDS011;53622;0.000;0.000;2022-12-18T10:57:15;3.60;;;3.30;;
66707;SDS011;53622;0.000;0.000;2022-12-18T10:59:56;4.03;;;3.35;;
66707;SDS011;53622;0.000;0.000;2022-12-18T11:02:28;6.63;;;4.30;;
66707;SDS011;53622;0.000;0.000;2022-12-18T11:05:07;4.40;;;3.75;;
66707;SDS011;53622;0.000;0.000;2022-12-18T11:07:54;6.15;;;3.83;;
66707;SDS011;53622;0.000;0.000;2022-12-18T11:10:26;6.75;;;4.13;;
66707;SDS011;53622;0.000;0.000;2022-12-18T11:13:10;7.13;;;4.35;;
66707;SDS011;53622;0.000;0.000;2022-12-18T11:15:41;13.40;;;6.07;;
66707;SDS011;53622;0.000;0.000;2022-12-18T11:18:16;12.02;;;6.68;;
66707;SDS011;53622;0.000;0.000;2022-12-18T11:20:51;14.15;;;6.60;;
66707;SDS011;53622;0.000;0.000;2022-12-18T11:23:25;12.13;;;6.22;;
66707;SDS011;53622;0.000;0.000;2022-12-18T11:25:58;12.20;;;6.80;;
66707;SDS011;53622;0.000;0.000;2022-12-18T11:28:40;8.70;;;5.65;;
66707;SDS011;53622;0.000;0.000;2022-12-18T11:31:19;14.43;;;6.80;;
66707;SDS011;53622;0.000;0.000;2022-12-18T11:33:58;15.02;;;7.47;;
66707;SDS011;53622;0.000;0.000;2022-12-18T11:36:51;16.98;;;8.13;;
66707;SDS011;53622;0.000;0.000;2022-12-18T11:39:23;17.95;;;8.93;;
66707;SDS011;53622;0.000;0.000;2022-12-18T11:41:58;16.63;;;7.97;;
66707;SDS011;53622;0.000;0.000;2022-12-18T11:44:42;24.63;;;7.63;;
66707;SDS011;53622;0.000;0.000;2022-12-18T11:47:21;26.38;;;8.25;;
66707;SDS011;53622;0.000;0.000;2022-12-18T11:49:58;17.63;;;6.57;;
66707;SDS011;53622;0.000;0.000;2022-12-18T11:52:31;18.25;;;6.30;;
66707;SDS011;53622;0.000;0.000;2022-12-18T11:55:10;16.90;;;5.97;;
66707;SDS011;53622;0.000;0.000;2022-12-18T11:57:44;10.93;;;5.75;;
66707;SDS011;53622;0.000;0.000;2022-12-18T12:00:24;11.95;;;5.13;;
66707;SDS011;53622;0.000;0.000;2022-12-18T12:03:00;8.32;;;5.05;;
66707;SDS011;53622;0.000;0.000;2022-12-18T12:05:50;11.88;;;4.68;;
66707;SDS011;53622;0.000;0.000;2022-12-18T12:08:35;15.88;;;5.63;;
66707;SDS011;53622;0.000;0.000;2022-12-18T12:11:17;8.25;;;5.30;;
66707;SDS011;53622;0.000;0.000;2022-12-18T12:13:55;7.53;;;4.90;;
66707;SDS011;53622;0.000;0.000;2022-12-18T12:16:35;13.95;;;4.47;;
66707;SDS011;53622;0.000;0.000;2022-12-18T12:19:18;12.27;;;4.35;;
66707;SDS011;53622;0.000;0.000;2022-12-18T12:22:00;8.02;;;4.10;;
66707;SDS011;53622;0.000;0.000;2022-12-18T12:24:40;9.35;;;4.10;;
66707;SDS011;53622;0.000;0.000;2022-12-18T12:27:23;6.22;;;3.50;;
66707;SDS011;53622;0.000;0.000;2022-12-18T12:30:00;11.65;;;4.22;;
66707;SDS011;53622;0.000;0.000;2022-12-18T12:32:45;7.70;;;3.63;;
66707;SDS011;53622;0.000;0.000;2022-12-18T12:35:25;9.68;;;4.03;;
66707;SDS011;53622;0.000;0.000;2022-12-18T12:38:07;7.18;;;3.88;;
66707;SDS011;53622;0.000;0.000;2022-12-18T12:40:43;8.10;;;3.60;;
66707;SDS011;53622;0.000;0.000;2022-12-18T12:43:28;6.72;;;3.53;;
66707;SDS011;53622;0.000;0.000;2022-12-18T12:46:04;6.22;;;3.42;;
66707;SDS011;53622;0.000;0.000;2022-12-18T12:48:43;5.65;;;3.55;;
66707;SDS011;53622;0.000;0.000;2022-12-18T12:51:16;6.10;;;3.47;;
66707;SDS011;53622;0.000;0.000;2022-12-18T12:53:48;4.15;;;3.20;;
66707;SDS011;53622;0.000;0.000;2022-12-18T12:56:19;8.68;;;3.92;;
66707;SDS011;53622;0.000;0.000;2022-12-18T12:58:54;6.68;;;3.63;;
66707;SDS011;53622;0.000;0.000;2022-12-18T13:01:28;6.88;;;3.50;;
66707;SDS011;53622;0.000;0.000;2022-12-18T13:04:10;7.15;;;3.00;;
66707;SDS011;53622;0.000;0.000;2022-12-18T13:06:47;11.25;;;3.30;;
66707;SDS011;53622;0.000;0.000;2022-12-18T13:09:26;11.23;;;3.60;;
66707;SDS011;53622;0.000;0.000;2022-12-18T13:12:03;15.27;;;3.58;;
66707;SDS011;53622;0.000;0.000;2022-12-18T13:14:55;7.80;;;3.28;;
66707;SDS011;53622;0.000;0.000;2022-12-18T13:17:42;7.90;;;3.42;;
66707;SDS011;53622;0.000;0.000;2022-12-18T13:20:14;6.03;;;3.53;;
66707;SDS011;53622;0.000;0.000;2022-12-18T13:22:45;11.10;;;3.45;;
66707;SDS011;53622;0.000;0.000;2022-12-18T13:25:31;11.10;;;3.33;;
66707;SDS011;53622;0.000;0.000;2022-12-18T13:28:04;11.00;;;3.55;;
66707;SDS011;53622;0.000;0.000;2022-12-18T13:30:44;7.25;;;3.17;;
66707;SDS011;53622;0.000;0.000;2022-12-18T13:36:39;6.25;;;3.60;;
66707;SDS011;53622;0.000;0.000;2022-12-18T13:39:10;5.85;;;4.20;;
66707;SDS011;53622;0.000;0.000;2022-12-18T13:45:41;14.00;;;4.30;;
66707;SDS011;53622;0.000;0.000;2022-12-18T13:48:14;12.05;;;5.10;;
66707;SDS011;53622;0.000;0.000;2022-12-18T13:50:48;15.07;;;5.07;;
66707;SDS011;53622;0.000;0.000;2022-12-18T13:53:23;10.60;;;5.28;;
66707;SDS011;53622;0.000;0.000;2022-12-18T13:55:55;10.95;;;4.65;;
66707;SDS011;53622;0.000;0.000;2022-12-18T13:58:24;8.75;;;5.10;;
66707;SDS011;53622;0.000;0.000;2022-12-18T14:00:54;8.68;;;4.65;;
66707;SDS011;53622;0.000;0.000;2022-12-18T14:03:24;8.75;;;4.63;;
66707;SDS011;53622;0.000;0.000;2022-12-18T14:05:57;8.55;;;4.13;;
66707;SDS011;53622;0.000;0.000;2022-12-18T14:08:34;13.85;;;6.70;;
66707;SDS011;53622;0.000;0.000;2022-12-18T14:11:07;11.93;;;4.85;;
66707;SDS011;53622;0.000;0.000;2022-12-18T14:13:48;11.38;;;5.28;;
66707;SDS011;53622;0.000;0.000;2022-12-18T14:16:18;8.10;;;5.15;;
66707;SDS011;53622;0.000;0.000;2022-12-18T14:18:50;8.60;;;5.03;;
66707;SDS011;53622;0.000;0.000;2022-12-18T14:21:41;9.88;;;4.50;;
66707;SDS011;53622;0.000;0.000;2022-12-18T14:24:17;9.68;;;5.00;;
66707;SDS011;53622;0.000;0.000;2022-12-18T14:26:48;8.73;;;4.63;;
66707;SDS011;53622;0.000;0.000;2022-12-18T14:29:19;6.55;;;4.82;;
66707;SDS011;53622;0.000;0.000;2022-12-18T14:32:04;11.25;;;4.85;;
66707;SDS011;53622;0.000;0.000;2022-12-18T14:34:43;7.65;;;4.80;;
66707;SDS011;53622;0.000;0.000;2022-12-18T14:37:13;12.25;;;4.82;;
66707;SDS011;53622;0.000;0.000;2022-12-18T14:39:58;7.80;;;4.55;;
66707;SDS011;53622;0.000;0.000;2022-12-18T14:42:37;6.28;;;4.13;;
66707;SDS011;53622;0.000;0.000;2022-12-18T14:48:09;7.38;;;4.10;;
66707;SDS011;53622;0.000;0.000;2022-12-18T14:50:59;6.70;;;3.67;;
66707;SDS011;53622;0.000;0.000;2022-12-18T14:53:34;4.50;;;3.55;;
66707;SDS011;53622;0.000;0.000;2022-12-18T14:56:18;7.63;;;3.65;;
66707;SDS011;53622;0.000;0.000;2022-12-18T14:58:50;7.38;;;3.85;;
66707;SDS011;53622;0.000;0.000;2022-12-18T15:01:24;5.03;;;3.97;;
66707;SDS011;53622;0.000;0.000;2022-12-18T15:03:56;4.82;;;3.13;;
66707;SDS011;53622;0.000;0.000;2022-12-18T15:06:28;4.72;;;3.72;;
66707;SDS011;53622;0.000;0.000;2022-12-18T15:09:00;4.70;;;3.88;;
66707;SDS011;53622;0.000;0.000;2022-12-18T15:11:34;4.00;;;3.50;;
66707;SDS011;53622;0.000;0.000;2022-12-18T15:14:30;5.68;;;2.72;;
66707;SDS011;53622;0.000;0.000;2022-12-18T15:17:14;3.78;;;3.22;;
66707;SDS011;53622;0.000;0.000;2022-12-18T15:19:49;5.47;;;3.28;;
66707;SDS011;53622;0.000;0.000;2022-12-18T15:22:22;3.30;;;3.00;;
66707;SDS011;53622;0.000;0.000;2022-12-18T15:24:54;4.13;;;2.70;;
66707;SDS011;53622;0.000;0.000;2022-12-18T15:27:28;7.32;;;3.42;;
66707;SDS011;53622;0.000;0.000;2022-12-18T15:30:00;3.28;;;2.70;;
66707;SDS011;53622;0.000;0.000;2022-12-18T15:32:31;3.10;;;2.80;;
66707;SDS011;53622;0.000;0.000;2022-12-18T15:35:02;3.58;;;2.83;;
66707;SDS011;53622;0.000;0.000;2022-12-18T15:37:40;4.32;;;2.85;;
66707;SDS011;53622;0.000;0.000;2022-12-18T15:40:14;3.08;;;2.78;;
66707;SDS011;53622;0.000;0.000;2022-12-18T15:42:47;4.35;;;3.22;;
66707;SDS011;53622;0.000;0.000;2022-12-18T15:45:37;2.70;;;2.45;;
66707;SDS011;53622;0.000;0.000;2022-12-18T15:48:11;4.00;;;2.65;;
66707;SDS011;53622;0.000;0.000;2022-12-18T15:50:48;4.18;;;2.67;;